YM Venus — 9HCB8 — position and weather

sailwx.info

Track history (hours):
 
Tides and Currents Weather Stations Pressure Air Temp Water Temp Dewpoint Dewpoint Depression Visibility Wind Speed Wind Dir Waves Ship Positions

YM Venus

Last reported at 2015-Mar-24 19:32 UTC. Time now 2015-Mar-30 02:20 UTC.
Position N 40°54' E 028°48'.

Length 105 m; draft 4.4 m.

Type: Tanker. MMSI: 215826000.

Date/timePositionNaut miles runAvg speedWind from/ knotsBaromVisibWave heightAir tempDewpointWater temp
2015-Mar-24 19:32N 40°54' E 028°48'4 1.3
2015-Mar-24 16:16N 40°56' E 028°52'0 0.0
2015-Mar-24 15:16N 40°56' E 028°52'0 0.0
2015-Mar-24 14:31N 40°56' E 028°52'5 5.3
2015-Mar-24 13:34N 40°52' E 028°54'1212.5
2015-Mar-24 12:34N 40°47' E 029°10'1212.0
2015-Mar-24 11:33N 40°45' E 029°25'5 1.6
2015-Mar-24 08:30N 40°46' E 029°32'0 0.0
2015-Mar-24 07:30N 40°46' E 029°32'1 0.0
2015-Mar-23 12:26N 40°45' E 029°31'7 8.4
2015-Mar-23 11:33N 40°44' E 029°22'4 3.4
2015-Mar-23 10:26N 40°44' E 029°17'0 0.4
2015-Mar-23 09:33N 40°44' E 029°16'0 0.3
2015-Mar-23 08:33N 40°44' E 029°16'1 1.0
2015-Mar-23 07:34N 40°43' E 029°16'2 2.2
2015-Mar-23 06:34N 40°41' E 029°19'0 0.2
2015-Mar-23 05:34N 40°42' E 029°19'0 0.0
2015-Mar-23 04:33N 40°42' E 029°19'0 0.2
2015-Mar-23 03:33N 40°42' E 029°18'0 0.1
2015-Mar-23 02:34N 40°42' E 029°18'0 0.2
2015-Mar-23 01:34N 40°42' E 029°18'0 0.2
2015-Mar-23 00:33N 40°42' E 029°18'0 0.2
2015-Mar-22 23:33N 40°42' E 029°17'0 0.3
2015-Mar-22 22:34N 40°42' E 029°17'0 0.2
2015-Mar-22 21:33N 40°42' E 029°17'0 0.1
2015-Mar-22 20:32N 40°42' E 029°17'0 0.2
2015-Mar-22 19:33N 40°42' E 029°17'0 0.2
2015-Mar-22 18:34N 40°42' E 029°18'0 0.2
2015-Mar-22 17:34N 40°43' E 029°18'0 0.3
2015-Mar-22 16:34N 40°43' E 029°18'0 0.4
2015-Mar-22 15:34N 40°43' E 029°17'0 0.4
2015-Mar-22 14:33N 40°44' E 029°17'1 0.6
2015-Mar-22 13:33N 40°44' E 029°17'1 0.7
2015-Mar-22 12:33N 40°45' E 029°16'1 0.8
2015-Mar-22 11:34N 40°45' E 029°15'1 0.8
2015-Mar-22 10:34N 40°45' E 029°14'1 0.7
2015-Mar-22 09:34N 40°46' E 029°13'1 0.5
2015-Mar-22 08:34N 40°46' E 029°13'0 0.1
2015-Mar-22 07:33N 40°46' E 029°13'0 0.1
2015-Mar-22 06:34N 40°46' E 029°12'0 0.1
2015-Mar-22 05:33N 40°46' E 029°12'0 0.2
2015-Mar-22 04:34N 40°46' E 029°12'0 0.3
2015-Mar-22 03:34N 40°45' E 029°12'0 0.2
2015-Mar-22 02:33N 40°45' E 029°12'0 0.2
2015-Mar-22 01:34N 40°45' E 029°12'0 0.4
2015-Mar-22 00:34N 40°45' E 029°11'0 0.4
2015-Mar-21 23:34N 40°45' E 029°10'1 0.6
2015-Mar-21 22:33N 40°45' E 029°10'0 0.3
2015-Mar-21 21:34N 40°44' E 029°09'4 3.5
2015-Mar-21 20:34N 40°45' E 029°14'1 0.6
2015-Mar-21 19:33N 40°45' E 029°13'1 0.5
2015-Mar-21 18:34N 40°45' E 029°13'0 0.5
2015-Mar-21 17:34N 40°44' E 029°12'1211.6
2015-Mar-21 16:31N 40°43' E 028°56'1512.6
2015-Mar-21 15:21N 40°44' E 028°37'  
2015-Mar-19 09:19N 37°39' E 025°42'1511.6
2015-Mar-19 08:04N 37°25' E 025°47'611.7
2015-Mar-19 07:34N 37°23' E 025°54'  
2015-Mar-15 06:26N 32°54' E 034°46'  
Track history (hours):
 
Tides and Currents Weather Stations Pressure Air Temp Water Temp Dewpoint Dewpoint Depression Visibility Wind Speed Wind Dir Waves Ship Positions

YM Venus

Last reported at 2015-Mar-24 19:32 UTC. Time now 2015-Mar-30 02:20 UTC.
Position N 40°54' E 028°48'.

Length 105 m; draft 4.4 m.

Type: Tanker. MMSI: 215826000.

Date/timePositionNaut miles runAvg speedWind from/ knotsBaromVisibWave heightAir tempDewpointWater temp
2015-Mar-24 19:32N 40°54' E 028°48'4 1.3
2015-Mar-24 16:16N 40°56' E 028°52'0 0.0
2015-Mar-24 15:16N 40°56' E 028°52'0 0.0
2015-Mar-24 14:31N 40°56' E 028°52'5 5.3
2015-Mar-24 13:34N 40°52' E 028°54'1212.5
2015-Mar-24 12:34N 40°47' E 029°10'1212.0
2015-Mar-24 11:33N 40°45' E 029°25'5 1.6
2015-Mar-24 08:30N 40°46' E 029°32'0 0.0
2015-Mar-24 07:30N 40°46' E 029°32'1 0.0
2015-Mar-23 12:26N 40°45' E 029°31'7 8.4
2015-Mar-23 11:33N 40°44' E 029°22'4 3.4
2015-Mar-23 10:26N 40°44' E 029°17'0 0.4
2015-Mar-23 09:33N 40°44' E 029°16'0 0.3
2015-Mar-23 08:33N 40°44' E 029°16'1 1.0
2015-Mar-23 07:34N 40°43' E 029°16'2 2.2
2015-Mar-23 06:34N 40°41' E 029°19'0 0.2
2015-Mar-23 05:34N 40°42' E 029°19'0 0.0
2015-Mar-23 04:33N 40°42' E 029°19'0 0.2
2015-Mar-23 03:33N 40°42' E 029°18'0 0.1
2015-Mar-23 02:34N 40°42' E 029°18'0 0.2
2015-Mar-23 01:34N 40°42' E 029°18'0 0.2
2015-Mar-23 00:33N 40°42' E 029°18'0 0.2
2015-Mar-22 23:33N 40°42' E 029°17'0 0.3
2015-Mar-22 22:34N 40°42' E 029°17'0 0.2
2015-Mar-22 21:33N 40°42' E 029°17'0 0.1
2015-Mar-22 20:32N 40°42' E 029°17'0 0.2
2015-Mar-22 19:33N 40°42' E 029°17'0 0.2
2015-Mar-22 18:34N 40°42' E 029°18'0 0.2
2015-Mar-22 17:34N 40°43' E 029°18'0 0.3
2015-Mar-22 16:34N 40°43' E 029°18'0 0.4
2015-Mar-22 15:34N 40°43' E 029°17'0 0.4
2015-Mar-22 14:33N 40°44' E 029°17'1 0.6
2015-Mar-22 13:33N 40°44' E 029°17'1 0.7
2015-Mar-22 12:33N 40°45' E 029°16'1 0.8
2015-Mar-22 11:34N 40°45' E 029°15'1 0.8
2015-Mar-22 10:34N 40°45' E 029°14'1 0.7
2015-Mar-22 09:34N 40°46' E 029°13'1 0.5
2015-Mar-22 08:34N 40°46' E 029°13'0 0.1
2015-Mar-22 07:33N 40°46' E 029°13'0 0.1
2015-Mar-22 06:34N 40°46' E 029°12'0 0.1
2015-Mar-22 05:33N 40°46' E 029°12'0 0.2
2015-Mar-22 04:34N 40°46' E 029°12'0 0.3
2015-Mar-22 03:34N 40°45' E 029°12'0 0.2
2015-Mar-22 02:33N 40°45' E 029°12'0 0.2
2015-Mar-22 01:34N 40°45' E 029°12'0 0.4
2015-Mar-22 00:34N 40°45' E 029°11'0 0.4
2015-Mar-21 23:34N 40°45' E 029°10'1 0.6
2015-Mar-21 22:33N 40°45' E 029°10'0 0.3
2015-Mar-21 21:34N 40°44' E 029°09'4 3.5
2015-Mar-21 20:34N 40°45' E 029°14'1 0.6
2015-Mar-21 19:33N 40°45' E 029°13'1 0.5
2015-Mar-21 18:34N 40°45' E 029°13'0 0.5
2015-Mar-21 17:34N 40°44' E 029°12'1211.6
2015-Mar-21 16:31N 40°43' E 028°56'1512.6
2015-Mar-21 15:21N 40°44' E 028°37'  
2015-Mar-19 09:19N 37°39' E 025°42'1511.6
2015-Mar-19 08:04N 37°25' E 025°47'611.7
2015-Mar-19 07:34N 37°23' E 025°54'  
2015-Mar-15 06:26N 32°54' E 034°46'  

Dump ship's entire track history